This is the latest recevied weather packets stored in our database for station/object SR4DIG-13. If no packets are shown the sender has not sent any weather packets the latest 10 day(s).
| Time | Temp. | Humidity | Pressure | Rain* | Wind** | Luminosity | Snow |
|---|---|---|---|---|---|---|---|
| 1777689337 | 7.22° C | 74% | 1023.5 hPa | 0 mm | - | - | - |
| 1777689036 | 7.22° C | 74% | 1023.5 hPa | 0 mm | - | - | - |
| 1777687858 | 7.22° C | 73% | 1023.5 hPa | 0 mm | - | - | - |
| 1777687557 | 7.22° C | 73% | 1023.5 hPa | 0 mm | - | - | - |
| 1777674185 | 10° C | 65% | 1023.8 hPa | 0 mm | - | - | - |
| 1777673884 | 10° C | 64% | 1023.8 hPa | 0 mm | - | - | - |
| 1777671479 | 10.56° C | 63% | 1023.9 hPa | 0 mm | - | - | - |
| 1777671179 | 10.56° C | 63% | 1023.9 hPa | 0 mm | - | - | - |
| 1777670878 | 10.56° C | 63% | 1023.9 hPa | 0 mm | - | - | - |
| 1777670577 | 10.56° C | 63% | 1023.9 hPa | 0 mm | - | - | - |
| 1777670276 | 10.56° C | 63% | 1023.9 hPa | 0 mm | - | - | - |
| 1777669975 | 10.56° C | 63% | 1023.8 hPa | 0 mm | - | - | - |
| 1777669675 | 10.56° C | 63% | 1023.7 hPa | 0 mm | - | - | - |
| 1777667886 | 11.11° C | 62% | 1023.6 hPa | 0 mm | - | - | - |
| 1777667585 | 11.11° C | 62% | 1023.6 hPa | 0 mm | - | - | - |
| 1777667284 | 11.11° C | 61% | 1023.5 hPa | 0 mm | - | - | - |
| 1777666081 | 11.67° C | 59% | 1023.6 hPa | 0 mm | - | - | - |
| 1777665464 | 11.67° C | 59% | 1023.7 hPa | 0 mm | - | - | - |
| 1777664862 | 12.22° C | 58% | 1023.7 hPa | 0 mm | - | - | - |
| 1777664242 | 12.22° C | 57% | 1023.8 hPa | 0 mm | - | - | - |
| 1777663640 | 12.78° C | 56% | 1023.8 hPa | 0 mm | - | - | - |
| 1777663339 | 12.78° C | 55% | 1023.7 hPa | 0 mm | - | - | - |
| 1777663039 | 12.78° C | 54% | 1023.6 hPa | 0 mm | - | - | - |
| 1777662738 | 13.33° C | 54% | 1023.6 hPa | 0 mm | - | - | - |
| 1777661430 | 14.44° C | 51% | 1023.4 hPa | 0 mm | - | - | - |
* Rain since midnight (hover to see other rain measurements)
** Current wind speed in m/s (hover to see current wind gust speed)